createdAt,value
2022-10-19T00:02:08.693Z,70.47
2022-10-19T00:04:35.297Z,69.85
2022-10-19T00:07:01.833Z,70.05
2022-10-19T00:09:29.224Z,69.89
2022-10-19T00:11:55.824Z,70.29
2022-10-19T00:14:23.791Z,70.59
2022-10-19T00:16:51.893Z,69.82
2022-10-19T00:19:25.161Z,70.27
2022-10-19T00:21:51.773Z,69.92
2022-10-19T00:24:19.013Z,70.09
2022-10-19T00:26:45.609Z,70.06
2022-10-19T00:29:13.555Z,70.03
2022-10-19T00:31:40.926Z,70.19
2022-10-19T00:34:07.560Z,69.91
2022-10-19T00:36:37.737Z,69.76
2022-10-19T00:39:06.815Z,69.89
2022-10-19T00:41:35.911Z,69.93
2022-10-19T00:44:03.763Z,69.63
2022-10-19T00:46:33.872Z,70.12
2022-10-19T00:49:12.968Z,70.15
2022-10-19T00:51:45.821Z,69.82
2022-10-19T00:54:12.721Z,69.61
2022-10-19T00:56:41.058Z,69.83
2022-10-19T00:59:08.146Z,69.72
2022-10-19T01:01:35.056Z,69.79
2022-10-19T01:04:02.119Z,69.49
2022-10-19T01:06:28.921Z,69.55
2022-10-19T01:08:55.486Z,69.42
2022-10-19T01:11:40.060Z,69.34
2022-10-19T01:14:18.593Z,69.45
2022-10-19T01:17:05.493Z,69.43
2022-10-19T01:19:53.821Z,69.60
2022-10-19T01:22:48.066Z,69.48
2022-10-19T01:25:17.651Z,69.09
2022-10-19T01:27:57.056Z,69.74
2022-10-19T01:30:45.287Z,69.77
2022-10-19T01:33:24.313Z,69.76
2022-10-19T01:36:03.133Z,69.06
2022-10-19T01:39:19.159Z,69.18
2022-10-19T01:42:03.590Z,69.24
2022-10-19T01:44:42.194Z,69.63
2022-10-19T01:47:14.801Z,69.44
2022-10-19T01:49:53.493Z,68.95
2022-10-19T01:52:21.116Z,69.07
2022-10-19T01:54:51.193Z,69.68
2022-10-19T01:57:23.345Z,69.09
2022-10-19T01:59:50.201Z,69.54
2022-10-19T02:02:17.371Z,69.18
2022-10-19T02:04:44.488Z,69.18
2022-10-19T02:07:11.782Z,69.07
2022-10-19T02:09:38.346Z,69.22
2022-10-19T02:12:09.167Z,68.99
2022-10-19T02:14:41.219Z,69.10
2022-10-19T02:17:10.819Z,68.80
2022-10-19T02:19:38.913Z,68.53
2022-10-19T02:22:05.639Z,68.76
2022-10-19T02:24:32.217Z,68.65
2022-10-19T02:27:00.566Z,68.58
2022-10-19T02:29:27.626Z,68.67
2022-10-19T02:31:54.225Z,68.49
2022-10-19T02:34:20.805Z,68.84
2022-10-19T02:36:47.399Z,68.79
2022-10-19T02:39:14.328Z,68.82
2022-10-19T02:41:53.075Z,68.34
2022-10-19T02:44:24.000Z,68.80
2022-10-19T02:46:55.785Z,68.34
2022-10-19T02:49:22.672Z,68.95
2022-10-19T02:52:01.006Z,68.88
2022-10-19T02:54:28.489Z,68.90
2022-10-19T02:56:55.732Z,68.44
2022-10-19T02:59:22.636Z,68.93
2022-10-19T03:01:49.438Z,68.55
2022-10-19T03:04:16.099Z,68.73
2022-10-19T03:06:42.832Z,68.69
2022-10-19T03:09:09.975Z,68.45
2022-10-19T03:11:36.560Z,68.57
2022-10-19T03:14:03.136Z,69.00
2022-10-19T03:16:29.681Z,68.48
2022-10-19T03:18:56.282Z,68.90
2022-10-19T03:21:22.868Z,68.55
2022-10-19T03:23:49.469Z,68.50
2022-10-19T03:26:17.669Z,68.65
2022-10-19T03:28:44.349Z,68.57
2022-10-19T03:31:11.010Z,68.44
2022-10-19T03:33:37.586Z,68.86
2022-10-19T03:36:23.270Z,68.85
2022-10-19T03:38:51.695Z,68.72
2022-10-19T03:41:19.578Z,68.39
2022-10-19T03:43:46.399Z,68.97
2022-10-19T03:46:13.038Z,68.68
2022-10-19T03:48:39.698Z,68.43
2022-10-19T03:51:09.415Z,68.46
2022-10-19T03:53:36.314Z,68.52
2022-10-19T03:56:08.136Z,68.62
2022-10-19T03:58:37.136Z,68.47
2022-10-19T04:01:11.611Z,68.42
2022-10-19T04:03:38.448Z,68.48
2022-10-19T04:06:07.525Z,68.35
2022-10-19T04:08:34.474Z,68.77
2022-10-19T04:11:05.810Z,68.29
2022-10-19T04:13:33.120Z,68.69
2022-10-19T04:16:00.347Z,68.83
2022-10-19T04:18:27.127Z,68.10
2022-10-19T04:20:57.978Z,68.74
2022-10-19T04:23:26.917Z,68.55
2022-10-19T04:25:53.593Z,68.11
2022-10-19T04:28:20.238Z,68.25
2022-10-19T04:30:46.833Z,68.05
2022-10-19T04:33:13.517Z,68.25
2022-10-19T04:35:40.119Z,68.16
2022-10-19T04:38:06.705Z,68.16
2022-10-19T04:40:35.510Z,68.40
2022-10-19T04:43:02.460Z,68.40
2022-10-19T04:45:29.061Z,68.45
2022-10-19T04:47:56.631Z,68.09
2022-10-19T04:50:24.127Z,67.95
2022-10-19T04:52:50.753Z,68.26
2022-10-19T04:55:17.337Z,68.06
2022-10-19T04:57:43.922Z,68.17
2022-10-19T05:00:11.077Z,68.36
2022-10-19T05:02:41.956Z,68.33
2022-10-19T05:05:08.830Z,68.46
2022-10-19T05:07:35.788Z,68.26
2022-10-19T05:10:02.870Z,68.17
2022-10-19T05:12:29.436Z,68.04
2022-10-19T05:14:56.055Z,68.49
2022-10-19T05:17:22.614Z,68.46
2022-10-19T05:19:49.190Z,68.26
2022-10-19T05:22:15.747Z,68.33
2022-10-19T05:24:42.317Z,68.43
2022-10-19T05:27:08.878Z,68.47
2022-10-19T05:29:35.478Z,68.22
2022-10-19T05:32:02.033Z,68.41
2022-10-19T05:34:28.605Z,68.44
2022-10-19T05:36:56.151Z,68.25
2022-10-19T05:39:23.119Z,68.39
2022-10-19T05:41:49.867Z,68.73
2022-10-19T05:44:18.968Z,68.10
2022-10-19T05:46:45.995Z,68.29
2022-10-19T05:49:13.298Z,68.25
2022-10-19T05:51:40.221Z,68.37
2022-10-19T05:54:07.929Z,68.35
2022-10-19T05:56:34.494Z,68.43
2022-10-19T05:59:03.694Z,68.33
2022-10-19T06:01:30.822Z,68.07
2022-10-19T06:03:58.547Z,67.82
2022-10-19T06:06:26.167Z,68.23
2022-10-19T06:08:54.123Z,68.07
2022-10-19T06:11:23.110Z,68.03
2022-10-19T06:13:50.929Z,68.08
2022-10-19T06:16:18.938Z,68.13
2022-10-19T06:18:45.526Z,68.38
2022-10-19T06:21:17.947Z,67.97
2022-10-19T06:23:44.777Z,68.42
2022-10-19T06:26:13.357Z,68.65
2022-10-19T06:28:41.688Z,67.81
2022-10-19T06:31:09.373Z,68.51
2022-10-19T06:33:36.622Z,67.79
2022-10-19T06:36:11.736Z,67.86
2022-10-19T06:38:38.662Z,68.17
2022-10-19T06:41:05.561Z,67.96
2022-10-19T06:43:32.410Z,67.89
2022-10-19T06:45:59.170Z,68.42
2022-10-19T06:48:25.857Z,68.26
2022-10-19T06:50:59.351Z,67.98
2022-10-19T06:53:26.256Z,68.19
2022-10-19T06:55:53.108Z,67.99
2022-10-19T06:58:19.652Z,68.25
2022-10-19T07:00:46.328Z,68.07
2022-10-19T07:03:12.989Z,68.02
2022-10-19T07:05:39.585Z,67.64
2022-10-19T07:08:06.226Z,67.99
2022-10-19T07:10:32.833Z,68.20
2022-10-19T07:12:59.444Z,67.89
2022-10-19T07:15:26.100Z,67.83
2022-10-19T07:17:53.166Z,67.67
2022-10-19T07:20:19.739Z,68.45
2022-10-19T07:22:46.329Z,68.11
2022-10-19T07:25:12.959Z,67.96
2022-10-19T07:27:40.576Z,67.75
2022-10-19T07:30:07.891Z,68.00
2022-10-19T07:32:34.482Z,68.34
2022-10-19T07:35:01.055Z,68.21
2022-10-19T07:37:27.646Z,68.13
2022-10-19T07:39:54.228Z,68.00
2022-10-19T07:44:52.252Z,68.16
2022-10-19T07:47:19.333Z,68.18
2022-10-19T07:49:45.896Z,68.23
2022-10-19T07:52:12.543Z,68.77
2022-10-19T07:54:39.135Z,68.76
2022-10-19T07:57:05.744Z,67.95
2022-10-19T07:59:32.317Z,68.41
2022-10-19T08:02:02.335Z,67.86
2022-10-19T08:04:55.990Z,67.84
2022-10-19T08:07:15.969Z,68.06
2022-10-19T08:09:58.034Z,68.59
2022-10-19T08:12:24.642Z,67.76
2022-10-19T08:14:51.348Z,67.90
2022-10-19T08:17:17.972Z,68.26
2022-10-19T08:19:45.792Z,67.88
2022-10-19T08:22:12.729Z,68.21
2022-10-19T08:24:39.392Z,68.19
2022-10-19T08:27:05.989Z,68.08
2022-10-19T08:29:32.576Z,67.88
2022-10-19T08:31:59.534Z,68.15
2022-10-19T08:34:26.252Z,68.06
2022-10-19T08:36:52.849Z,68.28
2022-10-19T08:39:19.520Z,68.06
2022-10-19T08:42:01.272Z,67.94
2022-10-19T08:44:52.101Z,68.01
2022-10-19T08:47:40.395Z,68.04
2022-10-19T08:50:18.395Z,67.50
2022-10-19T08:52:47.849Z,67.97
2022-10-19T08:55:20.433Z,68.39
2022-10-19T08:57:57.617Z,68.42
2022-10-19T09:03:43.849Z,67.73
2022-10-19T09:06:30.928Z,67.97
2022-10-19T09:08:58.146Z,68.25
2022-10-19T09:11:27.762Z,68.06
2022-10-19T09:14:16.941Z,67.93
2022-10-19T09:16:43.571Z,68.19
2022-10-19T09:19:18.309Z,68.21
2022-10-19T09:21:49.725Z,68.42
2022-10-19T09:24:28.761Z,67.89
2022-10-19T09:27:00.552Z,67.89
2022-10-19T09:29:38.730Z,68.27
2022-10-19T09:32:14.420Z,68.11
2022-10-19T09:34:46.690Z,68.19
2022-10-19T09:37:21.216Z,68.29
2022-10-19T09:39:54.173Z,67.91
2022-10-19T09:42:30.182Z,68.25
2022-10-19T09:44:58.819Z,68.03
2022-10-19T09:47:36.061Z,68.64
2022-10-19T09:50:25.408Z,68.26
2022-10-19T09:53:05.536Z,68.42
2022-10-19T09:58:13.671Z,68.48
2022-10-19T10:00:44.909Z,67.95
2022-10-19T10:03:43.536Z,67.67
2022-10-19T10:06:14.506Z,67.87
2022-10-19T10:08:47.363Z,68.09
2022-10-19T10:11:37.773Z,68.10
2022-10-19T10:14:19.777Z,67.55
2022-10-19T10:16:46.782Z,67.51
2022-10-19T10:19:16.224Z,67.90
2022-10-19T10:21:47.904Z,67.55
2022-10-19T10:24:16.329Z,67.08
2022-10-19T10:26:48.940Z,67.28
2022-10-19T10:29:21.894Z,67.56
2022-10-19T10:32:09.303Z,67.04
2022-10-19T10:35:01.090Z,66.83
2022-10-19T10:37:46.974Z,66.83
2022-10-19T10:40:23.770Z,67.01
2022-10-19T10:42:51.876Z,66.72
2022-10-19T10:45:33.384Z,66.48
2022-10-19T10:48:15.025Z,65.75
2022-10-19T10:50:41.565Z,65.97
2022-10-19T10:53:37.248Z,65.57
2022-10-19T10:56:06.139Z,66.18
2022-10-19T10:58:47.669Z,66.11
2022-10-19T11:01:24.315Z,66.07
2022-10-19T11:04:15.562Z,65.95
2022-10-19T11:06:45.950Z,65.62
2022-10-19T11:09:51.396Z,66.12
2022-10-19T11:12:19.912Z,66.32
2022-10-19T11:14:46.417Z,66.51
2022-10-19T11:17:19.990Z,66.40
2022-10-19T11:19:46.700Z,66.53
2022-10-19T11:22:35.356Z,65.87
2022-10-19T11:25:05.039Z,65.69
2022-10-19T11:27:47.762Z,66.14
2022-10-19T11:30:18.368Z,66.25
2022-10-19T11:32:47.815Z,66.25
2022-10-19T11:35:41.837Z,65.72
2022-10-19T11:38:20.593Z,66.10
2022-10-19T11:41:33.518Z,66.04
2022-10-19T11:44:15.122Z,65.81
2022-10-19T11:47:09.091Z,66.00
2022-10-19T11:50:05.000Z,66.22
2022-10-19T11:52:53.415Z,65.83
2022-10-19T11:55:57.758Z,65.74
2022-10-19T11:58:35.084Z,65.58
2022-10-19T12:01:34.184Z,65.88
2022-10-19T12:05:09.444Z,65.05
2022-10-19T12:08:11.112Z,64.72
2022-10-19T12:11:07.040Z,64.88
2022-10-19T12:13:47.606Z,64.40
2022-10-19T12:16:14.936Z,64.28
2022-10-19T12:18:51.018Z,64.09
2022-10-19T12:21:27.852Z,64.12
2022-10-19T12:23:54.669Z,64.17
2022-10-19T12:26:22.366Z,64.09
2022-10-19T12:28:59.807Z,63.82
2022-10-19T12:31:27.517Z,64.04
2022-10-19T12:34:15.299Z,64.42
2022-10-19T12:37:03.851Z,64.03
2022-10-19T12:39:34.128Z,64.31
2022-10-19T12:42:00.617Z,64.52
2022-10-19T12:44:33.135Z,64.03
2022-10-19T12:47:08.642Z,64.75
2022-10-19T12:49:38.455Z,64.29
2022-10-19T12:52:07.789Z,63.98
2022-10-19T12:54:36.600Z,63.94
2022-10-19T12:57:04.477Z,63.86
2022-10-19T12:59:37.653Z,64.61
2022-10-19T13:02:06.528Z,64.76
2022-10-19T13:04:34.566Z,64.56
2022-10-19T13:07:03.914Z,64.85
2022-10-19T13:09:42.284Z,64.48
2022-10-19T13:12:17.816Z,64.45
2022-10-19T13:15:02.363Z,64.51
2022-10-19T13:17:37.953Z,64.43
2022-10-19T13:20:13.745Z,64.45
2022-10-19T13:22:40.447Z,64.25
2022-10-19T13:25:28.829Z,64.17
2022-10-19T13:27:57.433Z,63.97
2022-10-19T13:30:36.307Z,64.20
2022-10-19T13:33:24.723Z,63.46
2022-10-19T13:36:00.295Z,63.70
2022-10-19T13:38:59.025Z,63.33
2022-10-19T13:41:45.985Z,62.98
2022-10-19T13:44:18.500Z,62.71
2022-10-19T13:47:03.206Z,62.30
2022-10-19T13:49:36.210Z,61.92
2022-10-19T13:52:27.595Z,61.83
2022-10-19T13:55:00.131Z,60.42
2022-10-19T13:57:47.809Z,60.51
2022-10-19T14:00:37.180Z,61.27
2022-10-19T14:03:35.235Z,61.25
2022-10-19T14:06:11.495Z,61.48
2022-10-19T14:08:44.923Z,61.18
2022-10-19T14:11:35.670Z,61.54
2022-10-19T14:14:11.300Z,61.15
2022-10-19T14:16:46.579Z,61.56
2022-10-19T14:19:14.618Z,61.59
2022-10-19T14:21:41.263Z,61.16
2022-10-19T14:24:31.384Z,60.48
2022-10-19T14:27:00.659Z,60.38
2022-10-19T14:29:27.238Z,60.42
2022-10-19T14:31:54.079Z,60.25
2022-10-19T14:34:20.739Z,60.17
2022-10-19T14:36:49.132Z,59.84
2022-10-19T14:39:24.923Z,60.00
2022-10-19T14:41:54.991Z,59.89
2022-10-19T14:44:50.454Z,60.00
2022-10-19T14:47:23.629Z,60.38
2022-10-19T14:49:50.753Z,61.01
2022-10-19T14:52:25.736Z,60.34
2022-10-19T14:54:53.710Z,60.23
2022-10-19T14:57:29.488Z,59.93
2022-10-19T15:00:02.379Z,60.06
2022-10-19T15:02:32.595Z,60.56
2022-10-19T15:05:01.002Z,60.25
2022-10-19T15:07:36.352Z,61.08
2022-10-19T15:10:05.940Z,61.70
2022-10-19T15:12:38.139Z,61.98
2022-10-19T15:15:26.009Z,62.06
2022-10-19T15:18:00.557Z,61.32
2022-10-19T15:20:28.206Z,62.09
2022-10-19T15:22:56.288Z,63.67
2022-10-19T15:25:33.986Z,63.44
2022-10-19T15:28:36.159Z,63.21
2022-10-19T15:31:14.516Z,62.71
2022-10-19T15:33:45.458Z,63.00
2022-10-19T15:36:19.607Z,63.29
2022-10-19T15:39:11.402Z,62.94
2022-10-19T15:41:46.005Z,62.70
2022-10-19T15:44:34.173Z,62.84
2022-10-19T15:47:15.967Z,62.98
2022-10-19T15:49:42.535Z,62.84
2022-10-19T15:52:28.824Z,62.98
2022-10-19T15:54:57.406Z,63.18
2022-10-19T15:57:36.043Z,63.40
2022-10-19T16:00:11.218Z,63.38
2022-10-19T16:02:39.063Z,62.85
2022-10-19T16:07:37.538Z,63.10
2022-10-19T16:10:04.667Z,63.12
2022-10-19T16:12:31.236Z,62.85
2022-10-19T16:14:57.814Z,62.99
2022-10-19T16:17:24.624Z,63.04
2022-10-19T16:19:51.375Z,62.88
2022-10-19T16:22:17.961Z,63.56
2022-10-19T16:24:44.564Z,62.76
2022-10-19T16:27:15.136Z,63.02
2022-10-19T16:29:43.621Z,63.10
2022-10-19T16:32:10.369Z,63.03
2022-10-19T16:34:37.145Z,63.09
2022-10-19T16:37:06.674Z,63.32
2022-10-19T16:39:34.257Z,63.34
2022-10-19T16:42:01.014Z,63.25
2022-10-19T16:44:27.659Z,63.23
2022-10-19T16:46:56.736Z,63.56
2022-10-19T16:49:23.330Z,63.28
2022-10-19T16:51:52.044Z,63.58
2022-10-19T16:54:21.448Z,62.85
2022-10-19T16:56:48.600Z,63.21
2022-10-19T16:59:19.184Z,62.77
2022-10-19T17:01:46.489Z,63.38
2022-10-19T17:04:14.634Z,63.11
2022-10-19T17:06:41.498Z,62.74
2022-10-19T17:11:54.761Z,62.90
2022-10-19T17:14:21.333Z,62.81
2022-10-19T17:16:47.944Z,63.05
2022-10-19T17:19:14.644Z,63.04
2022-10-19T17:21:42.495Z,62.83
2022-10-19T17:24:18.461Z,62.98
2022-10-19T17:26:48.470Z,62.86
2022-10-19T17:29:15.140Z,63.19
2022-10-19T17:31:42.311Z,62.66
2022-10-19T17:34:09.338Z,62.30
2022-10-19T17:39:10.825Z,62.69
2022-10-19T17:41:37.456Z,62.85
2022-10-19T17:44:04.992Z,62.29
2022-10-19T17:46:34.059Z,62.64
2022-10-19T17:49:01.043Z,62.70
2022-10-19T17:51:29.910Z,62.98
2022-10-19T17:54:01.948Z,62.60
2022-10-19T17:56:29.346Z,62.39
2022-10-19T17:58:57.213Z,62.70
2022-10-19T18:01:24.177Z,62.40
2022-10-19T18:03:50.922Z,62.08
2022-10-19T18:06:22.917Z,62.73
2022-10-19T18:08:52.306Z,62.63
2022-10-19T18:11:25.155Z,62.41
2022-10-19T18:13:52.546Z,61.90
2022-10-19T18:16:22.156Z,62.57
2022-10-19T18:18:50.542Z,62.35
2022-10-19T18:21:20.293Z,62.62
2022-10-19T18:23:47.043Z,62.22
2022-10-19T18:26:19.849Z,61.91
2022-10-19T18:28:46.612Z,62.24
2022-10-19T18:31:23.968Z,62.12
2022-10-19T18:33:57.908Z,62.06
2022-10-19T18:36:24.781Z,62.38
2022-10-19T18:38:52.126Z,61.79
2022-10-19T18:41:18.984Z,62.24
2022-10-19T18:43:53.459Z,62.12
2022-10-19T18:46:21.558Z,61.82
2022-10-19T18:48:48.438Z,62.04
2022-10-19T18:51:15.616Z,61.92
2022-10-19T18:53:43.128Z,61.85
2022-10-19T18:56:11.869Z,61.91
2022-10-19T18:58:38.911Z,61.98
2022-10-19T19:01:19.778Z,61.93
2022-10-19T19:03:49.623Z,61.45
2022-10-19T19:06:42.473Z,61.64
2022-10-19T19:09:10.614Z,61.39
2022-10-19T19:11:40.807Z,61.22
2022-10-19T19:14:16.585Z,61.51
2022-10-19T19:16:44.340Z,61.23
2022-10-19T19:19:13.186Z,61.72
2022-10-19T19:21:43.541Z,61.58
2022-10-19T19:24:15.356Z,61.33
2022-10-19T19:26:48.188Z,61.27
2022-10-19T19:29:15.371Z,61.42
2022-10-19T19:31:41.982Z,61.27
2022-10-19T19:34:09.485Z,61.02
2022-10-19T19:39:14.425Z,61.37
2022-10-19T19:41:41.053Z,61.22
2022-10-19T19:44:07.641Z,61.00
2022-10-19T19:46:34.978Z,61.31
2022-10-19T19:49:03.050Z,60.69
2022-10-19T19:51:31.079Z,60.81
2022-10-19T19:53:58.037Z,61.46
2022-10-19T19:56:24.826Z,60.72
2022-10-19T19:58:56.911Z,60.95
2022-10-19T20:01:23.765Z,60.86
2022-10-19T20:03:50.542Z,60.96
2022-10-19T20:06:22.164Z,61.01
2022-10-19T20:08:51.889Z,60.35
2022-10-19T20:11:18.526Z,60.46
2022-10-19T20:13:45.852Z,61.03
2022-10-19T20:16:23.922Z,60.33
2022-10-19T20:18:59.856Z,60.46
2022-10-19T20:21:27.756Z,60.45
2022-10-19T20:23:54.467Z,60.74
2022-10-19T20:26:22.733Z,60.88
2022-10-19T20:28:49.785Z,60.06
2022-10-19T20:31:17.669Z,60.10
2022-10-19T20:33:45.263Z,60.28
2022-10-19T20:36:24.921Z,59.90
2022-10-19T20:38:54.288Z,60.42
2022-10-19T20:41:22.604Z,60.42
2022-10-19T20:43:49.302Z,60.09
2022-10-19T20:46:18.421Z,59.61
2022-10-19T20:48:45.558Z,60.24
2022-10-19T20:51:13.690Z,59.52
2022-10-19T20:53:40.494Z,60.07
2022-10-19T20:56:08.795Z,60.27
2022-10-19T20:58:37.194Z,59.81
2022-10-19T21:01:11.860Z,59.72
2022-10-19T21:03:38.624Z,59.75
2022-10-19T21:06:07.128Z,59.45
2022-10-19T21:08:35.435Z,60.07
2022-10-19T21:11:10.577Z,59.66
2022-10-19T21:13:37.159Z,59.70
2022-10-19T21:16:14.810Z,60.13
2022-10-19T21:18:41.772Z,59.14
2022-10-19T21:21:21.926Z,59.89
2022-10-19T21:23:50.990Z,59.45
2022-10-19T21:26:17.937Z,59.10
2022-10-19T21:28:48.972Z,59.54
2022-10-19T21:31:16.743Z,59.64
2022-10-19T21:33:43.790Z,59.53
2022-10-19T21:36:11.319Z,59.41
2022-10-19T21:38:37.988Z,59.75
2022-10-19T21:41:06.908Z,59.25
2022-10-19T21:43:34.165Z,59.20
2022-10-19T21:46:05.335Z,59.62
2022-10-19T21:48:32.595Z,59.08
2022-10-19T21:50:59.586Z,58.77
2022-10-19T21:53:26.548Z,58.55
2022-10-19T21:55:54.703Z,58.77
2022-10-19T21:58:24.414Z,58.53
2022-10-19T22:00:51.011Z,58.70
2022-10-19T22:03:18.481Z,58.39
2022-10-19T22:05:52.187Z,59.17
2022-10-19T22:08:18.757Z,58.44
2022-10-19T22:10:45.361Z,58.32
2022-10-19T22:13:12.117Z,58.63
2022-10-19T22:15:40.034Z,58.64
2022-10-19T22:18:06.834Z,58.07
2022-10-19T22:20:36.250Z,58.39
2022-10-19T22:23:04.548Z,57.81
2022-10-19T22:25:31.770Z,58.57
2022-10-19T22:27:58.691Z,58.26
2022-10-19T22:30:25.459Z,57.64
2022-10-19T22:32:52.124Z,58.32
2022-10-19T22:35:18.883Z,58.25
2022-10-19T22:37:45.460Z,57.95
2022-10-19T22:40:13.183Z,57.81
2022-10-19T22:42:39.801Z,58.15
2022-10-19T22:45:06.889Z,57.80
2022-10-19T22:47:33.442Z,58.21
2022-10-19T22:50:00.084Z,57.70
2022-10-19T22:52:26.674Z,57.86
2022-10-19T22:54:53.357Z,58.00
2022-10-19T22:57:19.910Z,57.77
2022-10-19T22:59:46.458Z,57.26
2022-10-19T23:02:13.040Z,57.43
2022-10-19T23:04:39.654Z,57.46
2022-10-19T23:07:06.247Z,57.70
2022-10-19T23:09:32.957Z,57.77
2022-10-19T23:11:59.547Z,57.61
2022-10-19T23:14:26.122Z,58.04
2022-10-19T23:16:52.697Z,57.49
2022-10-19T23:19:19.298Z,57.35
2022-10-19T23:21:45.868Z,57.33
2022-10-19T23:24:12.520Z,57.75
2022-10-19T23:26:39.101Z,57.73
2022-10-19T23:29:05.723Z,57.45
2022-10-19T23:31:32.975Z,57.72
2022-10-19T23:33:59.829Z,57.09
2022-10-19T23:36:28.320Z,57.62
2022-10-19T23:38:56.191Z,57.16
2022-10-19T23:41:22.810Z,57.43
2022-10-19T23:43:49.419Z,56.92
2022-10-19T23:46:15.986Z,57.25
2022-10-19T23:48:42.757Z,57.60
2022-10-19T23:51:12.642Z,57.09
2022-10-19T23:53:41.516Z,57.45
2022-10-19T23:56:28.852Z,57.04
2022-10-19T23:58:55.959Z,57.23
